Time;durP1;ratioP1;P1;durP2;ratioP2;P2;SDS_P1;SDS_P2;PMS_P1;PMS_P2;Temp;Humidity;BMP_temperature;BMP_pressure;BME280_temperature;BME280_humidity;BME280_pressure;Samples;Min_cycle;Max_cycle;Signal;HPM_P1;HPM_P2
2023/04/19 00:01:19;;;;;;;13.77;12.27;;;9.40;99.90;;;;;;5013246;28;20223;-82
2023/04/19 00:03:47;;;;;;;15.73;13.10;;;9.40;99.90;;;;;;5012905;28;20600;-81
2023/04/19 00:06:14;;;;;;;14.00;11.50;;;9.30;99.90;;;;;;5013507;28;20214;-84
2023/04/19 00:08:41;;;;;;;13.70;12.17;;;9.30;99.90;;;;;;5032531;28;20214;-82
2023/04/19 00:11:08;;;;;;;15.97;12.80;;;9.30;99.90;;;;;;5032722;28;20210;-81
2023/04/19 00:13:35;;;;;;;15.00;12.37;;;9.30;99.90;;;;;;5033113;28;20600;-81
2023/04/19 00:16:03;;;;;;;14.50;12.90;;;9.30;99.90;;;;;;5024613;28;20208;-81
2023/04/19 00:18:30;;;;;;;13.67;12.17;;;9.20;99.90;;;;;;5012727;28;20211;-79
2023/04/19 00:20:58;;;;;;;15.23;12.63;;;9.20;99.90;;;;;;5012987;28;20206;-79
2023/04/19 00:23:25;;;;;;;15.07;11.93;;;9.20;99.90;;;;;;5015357;28;20618;-78
2023/04/19 00:25:52;;;;;;;14.27;12.77;;;9.20;99.90;;;;;;5015632;28;20508;-83
2023/04/19 00:28:19;;;;;;;18.10;12.93;;;9.10;99.90;;;;;;5016492;28;20225;-82
2023/04/19 00:30:46;;;;;;;17.27;13.50;;;9.10;99.90;;;;;;5016493;28;20335;-82
2023/04/19 00:33:13;;;;;;;14.20;12.60;;;9.10;99.90;;;;;;5015657;28;20313;-84
2023/04/19 00:35:40;;;;;;;16.67;13.00;;;9.10;99.90;;;;;;5016401;28;20199;-80
2023/04/19 00:38:09;;;;;;;14.57;12.83;;;9.10;99.90;;;;;;5015751;28;20231;-83
2023/04/19 00:40:36;;;;;;;16.53;13.30;;;9.10;99.90;;;;;;5015447;28;20230;-80
2023/04/19 00:43:03;;;;;;;15.23;12.90;;;9.10;99.90;;;;;;5016018;28;20655;-79
2023/04/19 00:45:32;;;;;;;16.93;13.23;;;9.10;99.90;;;;;;5016158;28;20187;-80
2023/04/19 00:48:00;;;;;;;15.87;13.10;;;9.20;99.90;;;;;;5031484;28;20209;-82
2023/04/19 00:50:27;;;;;;;16.50;12.73;;;9.10;99.90;;;;;;5035614;28;20197;-81
2023/04/19 00:52:55;;;;;;;15.33;13.67;;;9.10;99.90;;;;;;5034441;28;20210;-79
2023/04/19 00:55:24;;;;;;;19.30;14.10;;;9.10;99.90;;;;;;5028187;28;20622;-80
2023/04/19 00:57:51;;;;;;;16.67;14.20;;;9.10;99.90;;;;;;5015864;28;20229;-81
2023/04/19 01:00:19;;;;;;;15.00;13.13;;;9.10;99.90;;;;;;5015406;28;20202;-82
2023/04/19 01:02:46;;;;;;;17.93;14.37;;;9.00;99.90;;;;;;5016043;28;20230;-82
2023/04/19 01:05:13;;;;;;;18.73;14.27;;;9.10;99.90;;;;;;5015413;28;20269;-81
2023/04/19 01:07:40;;;;;;;17.70;13.90;;;9.10;99.90;;;;;;5015350;28;20595;-83
2023/04/19 01:10:07;;;;;;;18.43;14.23;;;9.00;99.90;;;;;;5023332;28;20214;-83
2023/04/19 01:12:36;;;;;;;16.03;14.33;;;9.00;99.90;;;;;;5035125;28;20230;-83
2023/04/19 01:15:03;;;;;;;17.23;14.17;;;9.00;99.90;;;;;;5029658;28;20290;-81
2023/04/19 01:17:33;;;;;;;16.10;13.70;;;9.00;99.90;;;;;;5016037;28;20254;-82
2023/04/19 01:20:00;;;;;;;19.80;14.27;;;9.00;99.90;;;;;;5014934;28;20214;-83
2023/04/19 01:22:30;;;;;;;16.53;14.13;;;9.00;99.90;;;;;;5017583;28;20195;-83
2023/04/19 01:24:57;;;;;;;19.87;15.23;;;9.00;99.90;;;;;;5015676;28;20507;-83
2023/04/19 01:27:24;;;;;;;19.20;14.33;;;9.00;99.90;;;;;;5015174;28;20286;-81
2023/04/19 01:29:51;;;;;;;18.87;15.90;;;9.00;99.90;;;;;;5014767;28;20209;-81
2023/04/19 01:32:18;;;;;;;19.30;15.27;;;9.00;99.90;;;;;;5014655;28;20675;-82
2023/04/19 01:34:45;;;;;;;18.63;14.87;;;9.00;99.90;;;;;;5015007;28;20217;-84
2023/04/19 01:37:12;;;;;;;20.77;14.90;;;9.10;99.90;;;;;;5014280;28;20227;-81
2023/04/19 01:39:40;;;;;;;21.53;14.97;;;9.00;99.90;;;;;;5015888;28;20290;-81
2023/04/19 01:42:07;;;;;;;16.70;14.10;;;9.10;99.90;;;;;;5015770;28;20202;-85
2023/04/19 01:44:34;;;;;;;21.17;15.07;;;9.10;99.90;;;;;;5015521;28;20287;-84
2023/04/19 01:47:01;;;;;;;18.13;14.87;;;9.10;99.90;;;;;;5014568;28;20202;-84
2023/04/19 01:49:27;;;;;;;17.57;13.63;;;9.10;99.90;;;;;;5014642;28;20230;-85
2023/04/19 01:51:54;;;;;;;17.23;14.50;;;9.00;99.90;;;;;;5014538;28;20207;-81
2023/04/19 01:54:21;;;;;;;19.30;14.17;;;9.00;99.90;;;;;;5015553;28;20211;-86
2023/04/19 01:56:49;;;;;;;16.77;13.80;;;9.00;99.90;;;;;;5015881;28;20241;-87
2023/04/19 01:59:16;;;;;;;20.07;15.00;;;9.00;99.90;;;;;;5028248;28;20585;-87
2023/04/19 02:01:43;;;;;;;18.87;13.87;;;9.00;99.90;;;;;;5035597;28;20305;-86
2023/04/19 02:04:10;;;;;;;17.77;13.97;;;9.00;99.90;;;;;;5034215;28;20310;-86
2023/04/19 02:06:37;;;;;;;18.00;14.47;;;9.00;99.90;;;;;;5035367;28;20658;-87
2023/04/19 02:09:04;;;;;;;16.03;13.20;;;9.00;99.90;;;;;;5034822;28;20274;-86
2023/04/19 02:11:31;;;;;;;16.80;13.80;;;9.10;99.90;;;;;;5016298;28;20616;-85
2023/04/19 02:13:59;;;;;;;18.90;14.83;;;9.10;99.90;;;;;;5015236;28;20233;-87
2023/04/19 02:16:26;;;;;;;20.77;15.43;;;9.10;99.90;;;;;;5015750;28;20294;-82
2023/04/19 02:18:53;;;;;;;22.90;15.80;;;9.10;99.90;;;;;;5015484;28;20196;-88
2023/04/19 02:21:20;;;;;;;20.80;15.37;;;9.10;99.90;;;;;;5025244;28;20207;-84
2023/04/19 02:23:46;;;;;;;19.27;15.50;;;9.10;99.90;;;;;;5024095;28;20599;-86
2023/04/19 02:26:13;;;;;;;17.37;14.97;;;9.10;99.90;;;;;;5034733;28;20207;-85
2023/04/19 02:28:40;;;;;;;19.43;16.77;;;9.10;99.90;;;;;;5034208;28;20282;-86
2023/04/19 02:31:09;;;;;;;20.03;15.50;;;9.10;99.90;;;;;;5035319;28;20237;-84
2023/04/19 02:33:36;;;;;;;20.00;15.67;;;9.10;99.90;;;;;;5027090;28;20234;-86
2023/04/19 02:36:03;;;;;;;20.60;16.07;;;9.10;99.90;;;;;;5015367;28;20214;-86
2023/04/19 02:38:30;;;;;;;21.53;15.70;;;9.10;99.90;;;;;;5015104;28;20203;-83
2023/04/19 02:40:57;;;;;;;19.93;16.30;;;9.10;99.90;;;;;;5014964;28;20546;-83
2023/04/19 02:43:23;;;;;;;22.93;15.83;;;9.00;99.90;;;;;;5014583;28;20203;-83
2023/04/19 02:45:51;;;;;;;23.00;17.63;;;9.00;99.90;;;;;;5014194;28;20291;-84
2023/04/19 02:48:19;;;;;;;19.07;16.27;;;9.10;99.90;;;;;;5014824;28;20307;-86
2023/04/19 02:50:46;;;;;;;20.33;17.00;;;9.00;99.90;;;;;;5015285;28;20214;-84
2023/04/19 02:53:13;;;;;;;23.43;16.83;;;9.10;99.90;;;;;;5014645;28;20314;-84
2023/04/19 02:55:40;;;;;;;21.50;16.53;;;9.10;99.90;;;;;;5015327;28;20224;-84
2023/04/19 02:58:06;;;;;;;24.30;16.77;;;9.10;99.90;;;;;;5014773;28;20595;-83
2023/04/19 03:00:33;;;;;;;20.97;17.57;;;9.10;99.90;;;;;;5014654;28;20504;-84
2023/04/19 03:03:02;;;;;;;21.70;16.87;;;9.10;99.90;;;;;;5014607;28;20231;-83
2023/04/19 03:05:31;;;;;;;20.07;17.03;;;9.20;99.90;;;;;;5014857;28;20611;-83
2023/04/19 03:07:57;;;;;;;21.37;17.10;;;9.20;99.90;;;;;;5014125;28;20278;-83
2023/04/19 03:10:25;;;;;;;21.33;16.53;;;9.20;99.90;;;;;;5014481;28;20511;-83
2023/04/19 03:12:51;;;;;;;20.10;15.57;;;9.20;99.90;;;;;;5014393;28;20541;-85
2023/04/19 03:15:19;;;;;;;19.63;15.60;;;9.30;99.90;;;;;;5014901;28;20203;-85
2023/04/19 03:17:46;;;;;;;21.23;16.50;;;9.30;99.90;;;;;;5014454;28;20206;-82
2023/04/19 03:20:13;;;;;;;21.97;16.30;;;9.30;99.90;;;;;;5014734;28;20203;-82
2023/04/19 03:22:41;;;;;;;20.43;16.23;;;9.30;99.90;;;;;;5026433;28;20296;-84
2023/04/19 03:25:11;;;;;;;20.17;15.80;;;9.30;99.90;;;;;;5034806;28;20289;-84
2023/04/19 03:27:38;;;;;;;20.43;15.53;;;9.30;99.90;;;;;;5034178;28;20263;-82
2023/04/19 03:30:06;;;;;;;20.63;16.37;;;9.30;99.90;;;;;;5034117;28;20591;-84
2023/04/19 03:32:33;;;;;;;18.23;15.43;;;9.40;99.90;;;;;;5033968;28;20198;-85
2023/04/19 03:35:00;;;;;;;18.37;16.00;;;9.40;99.90;;;;;;5033938;28;20654;-83
2023/04/19 03:37:27;;;;;;;18.43;13.93;;;9.40;99.90;;;;;;5033902;28;20246;-84
2023/04/19 03:39:55;;;;;;;16.10;13.83;;;9.40;99.90;;;;;;5017182;28;20578;-80
2023/04/19 03:42:22;;;;;;;17.97;13.27;;;9.40;99.90;;;;;;5014372;28;20479;-81
2023/04/19 03:44:49;;;;;;;17.93;13.67;;;9.30;99.90;;;;;;5014013;28;20196;-84
2023/04/19 03:47:16;;;;;;;17.13;12.40;;;9.30;99.90;;;;;;5013981;28;20203;-85
2023/04/19 03:49:42;;;;;;;16.37;12.63;;;9.30;99.90;;;;;;5013659;28;20217;-84
2023/04/19 03:52:10;;;;;;;16.63;12.73;;;9.20;99.90;;;;;;5013794;28;20270;-85
2023/04/19 03:54:36;;;;;;;16.07;12.67;;;9.20;99.90;;;;;;5013600;28;20254;-86
2023/04/19 03:57:05;;;;;;;14.33;11.93;;;9.20;99.90;;;;;;5017827;28;20602;-84
2023/04/19 03:59:32;;;;;;;15.17;12.57;;;9.20;99.90;;;;;;5018325;28;20568;-85
2023/04/19 04:01:59;;;;;;;16.37;11.90;;;9.20;99.90;;;;;;5023703;28;20282;-84
2023/04/19 04:04:26;;;;;;;19.37;12.10;;;9.20;99.90;;;;;;5037390;28;20187;-80
2023/04/19 04:06:53;;;;;;;12.80;11.10;;;9.20;99.90;;;;;;5022273;28;20203;-85
2023/04/19 04:09:20;;;;;;;15.50;10.90;;;9.20;99.90;;;;;;5018035;28;20191;-84
2023/04/19 04:11:46;;;;;;;15.20;11.87;;;9.20;99.90;;;;;;5018214;28;20306;-83
2023/04/19 04:14:15;;;;;;;13.73;10.30;;;9.30;99.90;;;;;;5017278;28;20234;-84
2023/04/19 04:16:42;;;;;;;13.00;10.47;;;9.30;99.90;;;;;;5017615;28;20192;-84
2023/04/19 04:19:08;;;;;;;12.20;9.37;;;9.40;99.90;;;;;;5033441;28;20209;-86
2023/04/19 04:21:35;;;;;;;14.17;10.27;;;9.30;99.90;;;;;;5027049;28;20620;-79
2023/04/19 04:24:02;;;;;;;12.97;10.13;;;9.40;99.90;;;;;;5017127;28;20300;-83
2023/04/19 04:26:32;;;;;;;13.23;9.40;;;9.40;99.90;;;;;;5017247;28;20196;-83
2023/04/19 04:29:00;;;;;;;10.80;9.47;;;9.40;99.90;;;;;;5017296;28;20202;-87
2023/04/19 04:31:28;;;;;;;14.37;9.67;;;9.30;99.90;;;;;;5016428;28;20202;-84
2023/04/19 04:33:55;;;;;;;13.13;9.60;;;9.20;99.90;;;;;;5016324;28;20619;-87
2023/04/19 04:36:22;;;;;;;11.00;9.63;;;9.20;99.90;;;;;;5016376;28;20674;-82
2023/04/19 04:38:49;;;;;;;12.27;9.03;;;9.10;99.90;;;;;;5015676;28;20203;-83
2023/04/19 04:41:16;;;;;;;11.57;9.50;;;9.10;99.90;;;;;;5016262;28;20584;-82
2023/04/19 04:43:48;;;;;;;14.33;9.80;;;9.00;99.90;;;;;;5031821;28;20206;-87
2023/04/19 04:46:15;;;;;;;11.47;9.80;;;9.00;99.90;;;;;;5036166;28;20187;-81
2023/04/19 04:48:43;;;;;;;11.47;9.37;;;9.00;99.90;;;;;;5029413;28;20199;-84
2023/04/19 04:51:10;;;;;;;10.70;8.77;;;8.90;99.90;;;;;;5016068;28;20227;-85
2023/04/19 04:53:37;;;;;;;15.70;10.13;;;8.90;99.90;;;;;;5015876;28;20227;-84
2023/04/19 04:56:04;;;;;;;9.23;8.30;;;9.00;99.90;;;;;;5016719;28;20198;-83
2023/04/19 04:58:31;;;;;;;11.67;9.47;;;8.90;99.90;;;;;;5016420;28;20239;-84
2023/04/19 05:00:58;;;;;;;11.70;9.40;;;8.90;99.90;;;;;;5016464;28;20203;-83
2023/04/19 05:03:26;;;;;;;9.67;8.40;;;8.80;99.90;;;;;;5016815;28;20290;-86
2023/04/19 05:05:55;;;;;;;14.70;9.60;;;8.90;99.90;;;;;;5016197;28;20211;-86
2023/04/19 05:08:22;;;;;;;12.03;9.23;;;8.80;99.90;;;;;;5015016;28;20200;-81
2023/04/19 05:10:49;;;;;;;10.10;8.50;;;8.90;99.90;;;;;;5016806;28;20650;-84
2023/04/19 05:13:16;;;;;;;13.43;9.53;;;8.80;99.90;;;;;;5016573;28;20297;-85
2023/04/19 05:15:43;;;;;;;11.50;9.57;;;8.90;99.90;;;;;;5016874;28;20230;-85
2023/04/19 05:18:09;;;;;;;9.83;8.63;;;8.80;99.90;;;;;;5015994;28;20210;-83
2023/04/19 05:20:37;;;;;;;15.13;8.60;;;8.90;99.90;;;;;;5016183;28;20615;-87
2023/04/19 05:23:05;;;;;;;11.20;8.37;;;8.80;99.90;;;;;;5030802;28;20511;-84
2023/04/19 05:25:32;;;;;;;11.00;9.23;;;8.90;99.90;;;;;;5036029;28;20264;-87
2023/04/19 05:27:59;;;;;;;10.53;8.50;;;8.90;99.90;;;;;;5024153;28;20234;-86
2023/04/19 05:30:26;;;;;;;10.00;8.47;;;8.90;99.90;;;;;;5018639;28;20209;-83
2023/04/19 05:32:53;;;;;;;11.93;8.67;;;8.90;99.90;;;;;;5035418;28;20206;-81
2023/04/19 05:35:20;;;;;;;13.37;8.53;;;8.90;99.90;;;;;;5024875;28;20290;-86
2023/04/19 05:37:47;;;;;;;13.50;9.13;;;8.90;99.90;;;;;;5031945;28;20305;-85
2023/04/19 05:40:15;;;;;;;10.07;7.47;;;8.90;99.90;;;;;;5034404;28;20293;-78
2023/04/19 05:42:42;;;;;;;12.67;8.47;;;8.90;99.90;;;;;;5024349;28;20202;-78
2023/04/19 05:45:10;;;;;;;10.20;8.03;;;8.90;99.90;;;;;;5030884;28;20233;-78
2023/04/19 05:47:37;;;;;;;10.77;7.87;;;8.90;99.90;;;;;;5029597;28;20209;-77
2023/04/19 05:50:04;;;;;;;13.00;7.67;;;9.00;99.90;;;;;;5019059;28;20203;-78
2023/04/19 05:52:31;;;;;;;9.30;7.60;;;8.90;99.90;;;;;;5014489;28;20211;-79
2023/04/19 05:54:58;;;;;;;12.87;7.87;;;9.00;99.90;;;;;;5013249;28;20310;-78
2023/04/19 05:57:26;;;;;;;8.87;7.33;;;9.00;99.90;;;;;;5030670;28;20214;-78
2023/04/19 05:59:54;;;;;;;9.97;6.73;;;9.00;99.90;;;;;;5024632;28;20203;-80
2023/04/19 06:02:21;;;;;;;9.17;7.10;;;9.00;99.90;;;;;;5017797;28;20704;-80
2023/04/19 06:04:48;;;;;;;8.37;6.80;;;9.00;99.90;;;;;;5019804;28;20780;-77
2023/04/19 06:07:15;;;;;;;8.67;6.80;;;9.10;99.90;;;;;;5031696;28;20276;-78
2023/04/19 06:09:41;;;;;;;8.03;6.40;;;9.10;99.90;;;;;;5014800;28;20238;-84
2023/04/19 06:12:08;;;;;;;11.30;8.33;;;9.20;99.90;;;;;;5013306;28;20208;-79
2023/04/19 06:14:37;;;;;;;11.33;6.20;;;9.30;99.90;;;;;;5029174;28;20244;-78
2023/04/19 06:17:04;;;;;;;11.23;7.17;;;9.30;99.90;;;;;;5024589;28;20230;-79
2023/04/19 06:19:32;;;;;;;8.00;6.77;;;9.30;99.90;;;;;;5026492;28;20289;-79
2023/04/19 06:21:59;;;;;;;8.90;6.77;;;9.40;99.90;;;;;;5032280;28;20206;-81
2023/04/19 06:24:26;;;;;;;8.83;6.03;;;9.40;99.90;;;;;;5030388;28;20282;-79
2023/04/19 06:26:53;;;;;;;8.57;6.53;;;9.40;99.90;;;;;;5033012;28;20289;-80
2023/04/19 06:29:22;;;;;;;8.53;6.77;;;9.50;99.90;;;;;;5026448;28;20221;-79
2023/04/19 06:31:50;;;;;;;8.70;6.43;;;9.50;99.90;;;;;;5032067;28;20207;-80
2023/04/19 06:34:17;;;;;;;9.07;6.67;;;9.50;99.90;;;;;;5023651;28;20223;-78
2023/04/19 06:36:44;;;;;;;10.23;6.53;;;9.50;99.90;;;;;;5012605;28;20815;-79
2023/04/19 06:39:11;;;;;;;8.30;6.20;;;9.50;99.90;;;;;;4997839;28;20311;-79
2023/04/19 06:41:38;;;;;;;7.83;5.90;;;9.50;99.90;;;;;;5029188;28;20200;-80
2023/04/19 06:44:05;;;;;;;8.37;6.57;;;9.50;38.00;;;;;;5024156;28;20198;-82
2023/04/19 06:46:33;;;;;;;11.40;6.40;;;9.50;6.20;;;;;;5031187;28;20219;-79
2023/04/19 06:49:01;;;;;;;15.40;6.67;;;9.50;41.20;;;;;;5023029;28;20580;-79
2023/04/19 06:51:28;;;;;;;9.83;6.77;;;9.50;1.00;;;;;;5030678;28;20234;-78
2023/04/19 06:53:56;;;;;;;7.40;5.67;;;9.50;1.00;;;;;;5017455;28;20227;-79
2023/04/19 06:56:44;;;;;;;9.50;6.87;;;9.50;99.90;;;;;;5027496;28;20221;-79
2023/04/19 06:59:11;;;;;;;9.40;6.43;;;9.50;99.90;;;;;;5022136;28;20203;-78
2023/04/19 07:01:38;;;;;;;8.70;5.67;;;9.60;99.90;;;;;;5016595;28;20199;-79
2023/04/19 07:04:07;;;;;;;7.40;5.83;;;9.60;99.90;;;;;;5015444;28;20563;-79
2023/04/19 07:06:34;;;;;;;6.43;5.50;;;9.70;65.00;;;;;;5016360;28;20203;-78
2023/04/19 07:09:01;;;;;;;8.73;6.20;;;9.80;1.00;;;;;;5024429;28;20281;-77
2023/04/19 07:11:29;;;;;;;9.17;5.93;;;9.90;1.00;;;;;;5031223;28;20207;-82
2023/04/19 07:13:56;;;;;;;8.97;5.70;;;10.00;1.00;;;;;;5027072;28;20253;-80
2023/04/19 07:16:23;;;;;;;7.93;5.20;;;10.20;99.90;;;;;;5031918;28;20198;-80
2023/04/19 07:18:50;;;;;;;7.27;5.33;;;10.50;99.90;;;;;;5018902;28;20199;-78
2023/04/19 07:21:18;;;;;;;7.17;4.83;;;10.60;1.00;;;;;;5033132;28;20278;-80
2023/04/19 07:23:46;;;;;;;8.87;5.00;;;10.80;1.00;;;;;;5023576;28;20303;-79
2023/04/19 07:26:13;;;;;;;13.23;5.97;;;10.90;99.90;;;;;;5018902;28;20289;-83
2023/04/19 07:28:40;;;;;;;12.30;6.17;;;10.90;99.90;;;;;;5033719;28;20547;-80
2023/04/19 07:31:07;;;;;;;6.13;4.60;;;11.00;99.90;;;;;;5024259;28;20645;-78
2023/04/19 07:33:34;;;;;;;8.23;5.07;;;11.10;1.00;;;;;;5031375;28;20204;-80
2023/04/19 07:36:01;;;;;;;7.80;4.60;;;11.30;1.00;;;;;;5016636;28;20302;-78
2023/04/19 07:38:29;;;;;;;7.57;5.17;;;11.40;1.00;;;;;;5030002;28;20229;-80
2023/04/19 07:40:56;;;;;;;6.47;4.33;;;11.60;1.00;;;;;;5026414;28;20210;-79
2023/04/19 07:43:23;;;;;;;5.63;4.30;;;11.70;85.60;;;;;;5019914;28;20207;-79
2023/04/19 07:45:50;;;;;;;6.20;4.60;;;11.60;43.10;;;;;;5021528;28;20202;-79
2023/04/19 07:48:16;;;;;;;8.13;4.73;;;11.60;99.90;;;;;;5031446;28;20244;-80
2023/04/19 07:50:43;;;;;;;5.47;4.40;;;11.70;99.90;;;;;;5025719;28;20294;-80
2023/04/19 07:53:10;;;;;;;8.27;4.57;;;11.60;1.00;;;;;;5017866;28;20289;-80
2023/04/19 07:55:39;;;;;;;7.87;4.70;;;11.60;1.00;;;;;;5032626;28;20214;-80
2023/04/19 07:58:06;;;;;;;7.47;4.23;;;11.70;1.00;;;;;;5026613;28;20465;-80
2023/04/19 08:00:33;;;;;;;6.10;4.17;;;11.80;1.00;;;;;;5036978;28;20285;-78
2023/04/19 08:03:00;;;;;;;7.13;4.33;;;11.90;1.00;;;;;;5016528;28;20206;-81
2023/04/19 08:05:27;;;;;;;8.27;3.87;;;12.30;99.90;;;;;;5018569;28;20200;-82
2023/04/19 08:07:54;;;;;;;4.50;4.03;;;12.20;99.90;;;;;;5022339;28;20297;-81
2023/04/19 08:10:21;;;;;;;5.83;4.27;;;12.10;1.00;;;;;;5020629;28;20210;-81
2023/04/19 08:12:50;;;;;;;6.90;3.93;;;12.00;1.00;;;;;;5028739;28;20298;-81
2023/04/19 08:15:17;;;;;;;6.80;4.23;;;12.10;1.00;;;;;;5031095;28;20716;-84
2023/04/19 08:17:44;;;;;;;4.73;3.50;;;12.10;1.00;;;;;;5028553;28;20516;-81
2023/04/19 08:20:12;;;;;;;4.87;3.93;;;12.00;99.90;;;;;;5022712;28;20709;-80
2023/04/19 08:22:39;;;;;;;5.83;3.63;;;12.10;1.00;;;;;;5011679;28;20753;-84
2023/04/19 08:25:08;;;;;;;4.63;3.47;;;12.20;92.00;;;;;;5013541;28;20511;-80
2023/04/19 08:27:35;;;;;;;4.67;3.37;;;12.30;99.90;;;;;;5011980;28;20206;-81
2023/04/19 08:30:05;;;;;;;5.77;3.30;;;12.40;1.00;;;;;;5012538;28;20635;-81
2023/04/19 08:32:32;;;;;;;5.93;3.80;;;12.60;1.00;;;;;;5016304;28;20211;-84
2023/04/19 08:34:59;;;;;;;5.37;3.73;;;12.70;99.90;;;;;;5022595;28;20315;-83
2023/04/19 08:37:26;;;;;;;4.03;2.70;;;12.60;99.90;;;;;;5022303;28;20235;-81
2023/04/19 08:39:53;;;;;;;3.73;3.07;;;12.60;99.90;;;;;;5019647;28;20206;-84
2023/04/19 08:42:20;;;;;;;4.47;3.03;;;12.60;1.00;;;;;;5013770;28;20195;-81
2023/04/19 08:44:47;;;;;;;3.17;2.57;;;12.60;1.00;;;;;;5015515;28;20202;-81
2023/04/19 08:47:16;;;;;;;3.37;2.93;;;12.70;1.00;;;;;;5033600;28;20299;-85
2023/04/19 08:49:45;;;;;;;3.00;2.57;;;12.80;1.00;;;;;;5020686;28;20218;-80
2023/04/19 08:52:13;;;;;;;3.50;2.73;;;12.90;99.90;;;;;;5032334;28;20199;-82
2023/04/19 08:54:41;;;;;;;3.60;2.17;;;12.90;1.00;;;;;;5018795;28;20223;-80
2023/04/19 08:57:11;;;;;;;3.20;2.77;;;13.00;1.00;;;;;;5015544;28;20207;-84
2023/04/19 08:59:38;;;;;;;4.53;2.50;;;13.00;1.00;;;;;;5015349;28;20285;-82
2023/04/19 09:02:05;;;;;;;4.27;2.83;;;13.00;1.00;;;;;;5015438;28;20282;-81
2023/04/19 09:04:33;;;;;;;5.50;2.57;;;13.00;99.90;;;;;;5015598;28;20784;-81
2023/04/19 09:07:00;;;;;;;3.27;2.20;;;13.10;1.00;;;;;;5012183;28;20521;-80
2023/04/19 09:09:29;;;;;;;4.03;2.40;;;13.30;91.50;;;;;;5029332;28;20296;-79
2023/04/19 09:11:56;;;;;;;3.77;2.67;;;13.40;99.90;;;;;;5016667;28;20211;-79
2023/04/19 09:14:25;;;;;;;4.03;2.80;;;13.70;1.00;;;;;;5013969;28;20292;-81
2023/04/19 09:16:52;;;;;;;3.27;2.50;;;14.00;99.90;;;;;;5015327;28;20219;-81
2023/04/19 09:19:19;;;;;;;4.43;2.67;;;14.00;99.90;;;;;;5023836;28;20214;-83
2023/04/19 09:21:50;;;;;;;2.50;2.17;;;13.80;1.00;;;;;;5020527;28;20294;-81
2023/04/19 09:24:17;;;;;;;9.20;3.80;;;13.80;99.90;;;;;;5015640;28;20246;-81
2023/04/19 09:26:56;;;;;;;3.50;3.10;;;13.90;1.00;;;;;;5022298;28;20239;-84
2023/04/19 09:29:23;;;;;;;5.90;2.93;;;14.00;99.90;;;;;;5029974;28;20674;-81
2023/04/19 09:31:58;;;;;;;4.23;2.20;;;13.60;1.00;;;;;;5018865;28;20257;-84
2023/04/19 09:34:27;;;;;;;4.53;2.80;;;13.60;99.90;;;;;;5016002;28;20221;-81
2023/04/19 09:36:56;;;;;;;6.93;2.80;;;13.50;99.90;;;;;;5024595;28;20843;-82
2023/04/19 09:39:30;;;;;;;4.73;2.90;;;13.60;99.90;;;;;;5013818;28;20203;-84
2023/04/19 09:41:57;;;;;;;5.50;3.10;;;14.10;99.90;;;;;;5031800;28;20583;-82
2023/04/19 09:44:24;;;;;;;3.87;3.20;;;14.20;99.90;;;;;;5031998;28;20207;-82
2023/04/19 09:46:51;;;;;;;3.43;2.70;;;14.30;99.90;;;;;;5030042;28;20494;-82
2023/04/19 09:49:22;;;;;;;5.47;3.13;;;14.30;11.30;;;;;;5033352;28;20253;-79
2023/04/19 09:51:50;;;;;;;5.00;2.80;;;14.30;99.90;;;;;;5025140;28;20261;-78
2023/04/19 09:54:21;;;;;;;3.97;2.87;;;14.10;91.80;;;;;;5013624;28;20212;-82
2023/04/19 09:56:48;;;;;;;3.40;2.90;;;14.10;32.10;;;;;;5029661;28;20215;-83
2023/04/19 09:59:15;;;;;;;5.73;2.40;;;13.70;1.00;;;;;;5034021;28;20506;-83
2023/04/19 10:01:44;;;;;;;3.03;2.23;;;13.80;99.90;;;;;;5019748;28;20521;-84
2023/04/19 10:04:12;;;;;;;3.10;2.30;;;14.00;1.00;;;;;;5024703;28;20310;-84
2023/04/19 10:06:40;;;;;;;3.83;2.33;;;14.20;99.90;;;;;;5024287;28;20207;-81
2023/04/19 10:09:08;;;;;;;3.83;2.37;;;14.20;1.00;;;;;;5019989;28;20313;-79
2023/04/19 10:11:38;;;;;;;3.67;2.40;;;13.90;1.00;;;;;;5024341;28;20268;-79
2023/04/19 10:14:06;;;;;;;2.50;2.00;;;13.70;99.90;;;;;;5030037;28;20293;-81
2023/04/19 10:16:35;;;;;;;3.20;2.27;;;13.80;99.90;;;;;;5024359;28;20794;-80
2023/04/19 10:19:04;;;;;;;3.07;2.03;;;14.00;47.50;;;;;;5030308;28;20699;-80
2023/04/19 10:21:32;;;;;;;3.50;2.40;;;14.30;47.40;;;;;;5022975;28;20207;-80
2023/04/19 10:23:59;;;;;;;3.57;2.07;;;14.50;1.00;;;;;;5022879;28;20199;-81
2023/04/19 10:26:26;;;;;;;3.07;2.00;;;14.70;1.00;;;;;;5015934;28;20207;-79
2023/04/19 10:28:56;;;;;;;2.93;1.80;;;14.70;1.00;;;;;;5012367;28;20282;-80
2023/04/19 10:31:26;;;;;;;4.03;2.00;;;14.80;1.00;;;;;;5019088;28;20214;-81
2023/04/19 10:33:53;;;;;;;2.90;2.00;;;15.00;1.00;;;;;;5029476;28;20206;-82
2023/04/19 10:36:21;;;;;;;2.73;2.10;;;14.90;1.00;;;;;;5028236;28;20525;-81
2023/04/19 10:38:51;;;;;;;4.80;2.27;;;14.30;1.00;;;;;;5016892;28;20207;-80
2023/04/19 10:41:18;;;;;;;3.10;2.17;;;14.20;1.00;;;;;;5012152;28;20254;-80
2023/04/19 10:43:47;;;;;;;4.53;2.00;;;14.40;99.90;;;;;;5012582;28;20239;-81
2023/04/19 10:46:35;;;;;;;2.80;2.20;;;14.50;1.00;;;;;;5016271;28;20198;-82
2023/04/19 10:49:03;;;;;;;3.43;1.77;;;14.40;99.90;;;;;;5033028;28;20195;-79
2023/04/19 10:51:34;;;;;;;2.57;1.97;;;14.50;99.90;;;;;;5013536;28;20211;-80
2023/04/19 10:54:02;;;;;;;4.27;2.27;;;14.50;1.00;;;;;;5012788;28;20233;-81
2023/04/19 10:57:10;;;;;;;3.17;2.13;;;14.30;99.90;;;;;;5013364;28;20293;-81
2023/04/19 10:59:39;;;;;;;4.40;2.13;;;14.30;99.90;;;;;;5017206;28;20236;-82
2023/04/19 11:02:27;;;;;;;2.60;2.07;;;14.50;99.90;;;;;;5032442;28;20775;-79
2023/04/19 11:05:04;;;;;;;5.50;2.57;;;14.60;99.90;;;;;;5011521;28;20216;-79
2023/04/19 11:07:38;;;;;;;3.43;2.20;;;14.60;99.90;;;;;;5012884;28;20195;-82
2023/04/19 11:10:06;;;;;;;3.40;2.30;;;14.50;99.90;;;;;;5013397;28;20605;-80
2023/04/19 11:12:34;;;;;;;2.47;2.27;;;14.60;1.00;;;;;;5032518;28;20202;-80
2023/04/19 11:15:01;;;;;;;6.03;2.73;;;14.70;99.90;;;;;;5033340;28;20225;-81
2023/04/19 11:17:31;;;;;;;3.50;2.90;;;14.70;99.90;;;;;;5027164;28;20199;-79
2023/04/19 11:19:59;;;;;;;2.93;2.23;;;14.70;99.90;;;;;;5011759;28;20210;-82
2023/04/19 11:22:31;;;;;;;5.20;2.63;;;15.00;99.90;;;;;;5020900;28;20214;-79
2023/04/19 11:25:05;;;;;;;3.47;2.50;;;14.90;1.00;;;;;;5030848;28;20248;-79
2023/04/19 11:27:33;;;;;;;3.10;2.80;;;14.90;99.90;;;;;;5012527;28;20196;-81
2023/04/19 11:30:04;;;;;;;4.00;2.70;;;15.40;99.90;;;;;;5012786;28;20246;-82
2023/04/19 11:32:33;;;;;;;4.07;2.73;;;15.50;1.00;;;;;;5027477;28;20725;-80
2023/04/19 11:35:06;;;;;;;3.50;2.80;;;15.40;1.00;;;;;;5032182;28;20297;-80
2023/04/19 11:37:33;;;;;;;4.13;2.83;;;15.30;1.00;;;;;;5032060;28;20227;-81
2023/04/19 11:40:00;;;;;;;3.90;2.73;;;15.50;1.00;;;;;;5032381;28;20205;-82
2023/04/19 11:42:27;;;;;;;4.03;2.90;;;15.40;1.00;;;;;;5027277;28;20206;-79
2023/04/19 11:44:56;;;;;;;4.80;2.97;;;15.30;1.00;;;;;;5012450;28;20775;-79
2023/04/19 11:47:23;;;;;;;4.27;2.60;;;15.50;99.90;;;;;;5012198;28;20566;-79
2023/04/19 11:49:51;;;;;;;4.13;3.10;;;15.40;1.00;;;;;;5013296;28;20519;-81
2023/04/19 11:52:22;;;;;;;6.60;2.95;;;15.30;1.00;;;;;;5012780;28;20280;-81
2023/04/19 11:54:50;;;;;;;5.23;3.27;;;15.50;99.90;;;;;;5020543;28;20214;-82
2023/04/19 11:57:28;;;;;;;4.07;3.23;;;15.40;99.90;;;;;;5032373;28;20295;-84
2023/04/19 12:00:10;;;;;;;4.90;3.33;;;15.40;99.90;;;;;;5032914;28;20197;-82
2023/04/19 12:02:40;;;;;;;4.67;2.97;;;15.40;99.90;;;;;;5015360;28;20215;-80
2023/04/19 12:05:23;;;;;;;3.17;2.87;;;15.40;99.90;;;;;;5012896;28;20210;-83
2023/04/19 12:08:01;;;;;;;3.37;2.70;;;15.30;99.90;;;;;;5012087;28;20602;-80
2023/04/19 12:10:28;;;;;;;3.87;3.00;;;15.40;99.90;;;;;;5012890;28;20302;-83
2023/04/19 12:12:55;;;;;;;4.00;2.90;;;15.40;99.90;;;;;;5012656;28;20219;-83
2023/04/19 12:15:22;;;;;;;4.30;3.00;;;15.50;99.90;;;;;;5012163;28;20321;-81
2023/04/19 12:18:00;;;;;;;4.07;2.70;;;15.50;1.00;;;;;;5015597;28;20611;-79
2023/04/19 12:20:37;;;;;;;5.63;2.40;;;15.50;1.00;;;;;;5016600;28;20211;-81
2023/04/19 12:23:05;;;;;;;3.27;2.40;;;15.60;1.00;;;;;;5015979;28;20278;-82
2023/04/19 12:25:34;;;;;;;3.57;2.50;;;15.70;1.00;;;;;;5024179;28;20282;-82
2023/04/19 12:28:03;;;;;;;4.63;2.50;;;15.60;1.00;;;;;;5036025;28;20203;-81
2023/04/19 12:30:31;;;;;;;2.93;2.50;;;15.60;1.00;;;;;;5035460;28;20286;-80
2023/04/19 12:32:59;;;;;;;3.00;2.37;;;15.70;1.00;;;;;;5035919;28;20237;-77
2023/04/19 12:35:27;;;;;;;2.70;2.40;;;15.70;99.90;;;;;;5021313;28;20546;-82
2023/04/19 12:37:56;;;;;;;3.50;2.23;;;15.70;99.90;;;;;;5015524;28;20693;-79
2023/04/19 12:40:24;;;;;;;4.03;2.70;;;15.90;1.00;;;;;;5017313;28;20213;-81
2023/04/19 12:42:51;;;;;;;4.33;2.43;;;15.90;99.90;;;;;;5017408;28;20303;-84
2023/04/19 12:45:20;;;;;;;4.57;2.67;;;15.90;99.90;;;;;;5017089;28;20205;-82
2023/04/19 12:47:48;;;;;;;4.63;2.00;;;16.20;99.90;;;;;;5023390;28;20301;-81
2023/04/19 12:50:16;;;;;;;4.20;2.53;;;16.00;99.90;;;;;;5036515;28;20205;-80